Time;durP1;ratioP1;P1;durP2;ratioP2;P2;SDS_P1;SDS_P2;PMS_P1;PMS_P2;Temp;Humidity;BMP_temperature;BMP_pressure;BME280_temperature;BME280_humidity;BME280_pressure;Samples;Min_cycle;Max_cycle;Signal;HPM_P1;HPM_P2
2021/01/15 00:00:27;;;;;;;11.87;9.63;;;1.80;93.80;;;;;;6202953;28;20054;-79
2021/01/15 00:03:32;;;;;;;13.17;9.63;;;1.70;93.70;;;;;;6202425;28;20057;-80
2021/01/15 00:06:34;;;;;;;12.30;9.33;;;1.80;93.50;;;;;;6211035;28;20080;-80
2021/01/15 00:09:35;;;;;;;13.93;9.87;;;1.70;93.30;;;;;;6226451;28;20060;-80
2021/01/15 00:12:38;;;;;;;12.10;8.10;;;1.70;92.90;;;;;;6227743;28;20057;-79
2021/01/15 00:15:39;;;;;;;13.67;10.60;;;1.70;93.00;;;;;;6226863;28;20041;-80
2021/01/15 00:18:41;;;;;;;10.30;8.13;;;1.70;92.80;;;;;;6225914;28;20418;-80
2021/01/15 00:21:48;;;;;;;15.27;8.57;;;1.70;92.50;;;;;;6226565;28;20061;-78
2021/01/15 00:24:49;;;;;;;11.77;7.17;;;1.70;92.20;;;;;;6225803;28;20046;-80
2021/01/15 00:27:51;;;;;;;10.40;7.57;;;1.70;92.10;;;;;;6225594;28;20045;-81
2021/01/15 00:30:52;;;;;;;8.67;6.33;;;1.70;91.90;;;;;;6225220;28;20403;-80
2021/01/15 00:33:54;;;;;;;7.10;5.97;;;1.70;91.80;;;;;;6221544;28;20137;-80
2021/01/15 00:36:55;;;;;;;10.93;6.00;;;1.70;91.60;;;;;;6201588;28;20061;-80
2021/01/15 00:39:57;;;;;;;9.63;6.43;;;1.60;91.50;;;;;;6201442;28;20073;-81
2021/01/15 00:42:58;;;;;;;8.03;6.77;;;1.60;91.20;;;;;;6213813;28;20128;-79
2021/01/15 00:45:59;;;;;;;6.97;5.30;;;1.60;91.20;;;;;;6225363;28;20415;-80
2021/01/15 00:49:03;;;;;;;8.03;6.37;;;1.60;91.10;;;;;;6225906;28;20492;-79
2021/01/15 00:52:05;;;;;;;7.53;5.90;;;1.60;91.10;;;;;;6227264;28;20050;-78
2021/01/15 00:55:08;;;;;;;9.30;5.70;;;1.60;91.10;;;;;;6224702;28;20129;-80
2021/01/15 00:58:12;;;;;;;12.53;5.80;;;1.60;90.70;;;;;;6224984;28;20048;-80
2021/01/15 01:01:21;;;;;;;7.57;5.20;;;1.60;90.60;;;;;;6225600;28;20081;-79
2021/01/15 01:04:23;;;;;;;9.60;5.07;;;1.60;90.40;;;;;;6222954;28;20041;-80
2021/01/15 01:07:24;;;;;;;6.93;4.23;;;1.60;90.80;;;;;;6224559;28;20091;-80
2021/01/15 01:10:26;;;;;;;8.90;5.50;;;1.60;90.40;;;;;;6224774;28;20129;-79
2021/01/15 01:13:27;;;;;;;6.70;4.03;;;1.50;90.00;;;;;;6224772;28;20054;-78
2021/01/15 01:16:28;;;;;;;5.67;4.10;;;1.60;90.00;;;;;;6224672;28;20519;-79
2021/01/15 01:19:30;;;;;;;6.23;4.23;;;1.50;89.30;;;;;;6224234;28;20049;-79
2021/01/15 01:22:32;;;;;;;5.13;4.23;;;1.50;88.40;;;;;;6224460;28;20065;-79
2021/01/15 01:25:33;;;;;;;5.83;4.40;;;1.50;88.40;;;;;;6224855;28;20041;-79
2021/01/15 01:28:34;;;;;;;4.50;4.03;;;1.50;88.00;;;;;;6224964;28;20180;-79
2021/01/15 01:31:36;;;;;;;6.43;3.97;;;1.50;88.30;;;;;;6224293;28;20128;-79
2021/01/15 01:34:38;;;;;;;13.13;4.17;;;1.50;89.10;;;;;;6224997;28;20084;-81
2021/01/15 01:37:39;;;;;;;4.27;3.63;;;1.50;88.40;;;;;;6224686;28;20077;-80
2021/01/15 01:40:41;;;;;;;5.10;3.70;;;1.50;87.40;;;;;;6225919;28;20511;-79
2021/01/15 01:43:42;;;;;;;6.27;3.77;;;1.40;88.20;;;;;;6224405;28;20049;-83
2021/01/15 01:46:43;;;;;;;8.07;4.13;;;1.50;88.30;;;;;;6223643;28;20046;-82
2021/01/15 01:49:46;;;;;;;8.53;3.93;;;1.40;88.30;;;;;;6224775;28;20132;-82
2021/01/15 01:52:48;;;;;;;6.37;3.53;;;1.40;87.30;;;;;;6224727;28;20551;-82
2021/01/15 01:55:50;;;;;;;5.27;3.00;;;1.40;87.00;;;;;;6224207;28;20437;-78
2021/01/15 01:58:51;;;;;;;5.33;3.47;;;1.40;87.30;;;;;;6212753;22;20142;-75
2021/01/15 02:01:53;;;;;;;9.27;4.33;;;1.40;87.40;;;;;;6175181;28;20611;-75
2021/01/15 02:04:55;;;;;;;5.23;3.23;;;1.30;87.10;;;;;;6197844;28;20496;-75
2021/01/15 02:07:57;;;;;;;7.90;3.27;;;1.30;88.00;;;;;;6177914;28;20051;-75
2021/01/15 02:11:08;;;;;;;13.57;4.43;;;1.30;88.20;;;;;;6173709;28;20046;-75
2021/01/15 02:14:21;;;;;;;5.60;3.50;;;1.20;87.60;;;;;;6173614;28;20042;-75
2021/01/15 02:17:30;;;;;;;3.43;2.80;;;1.20;87.90;;;;;;6179031;28;20058;-75
2021/01/15 02:20:52;;;;;;;;;;;1.10;88.40;;;;;;6179005;28;20135;-75
2021/01/15 02:24:02;;;;;;;6.60;4.00;;;1.00;89.50;;;;;;6178282;28;20029;-75
2021/01/15 02:27:21;;;;;;;4.40;3.87;;;1.00;89.10;;;;;;6178254;28;20692;-75
2021/01/15 02:30:35;;;;;;;6.35;4.00;;;0.90;89.40;;;;;;6178523;28;20070;-75
2021/01/15 02:33:45;;;;;;;4.10;3.40;;;0.90;89.40;;;;;;6177968;28;20057;-75
2021/01/15 02:36:57;;;;;;;4.37;3.90;;;0.90;89.50;;;;;;6179015;28;20081;-75
2021/01/15 02:40:04;;;;;;;4.43;2.90;;;0.90;89.70;;;;;;6178047;28;20054;-74
2021/01/15 02:43:07;;;;;;;5.40;3.45;;;0.90;89.20;;;;;;6177737;28;20051;-75
2021/01/15 02:46:13;;;;;;;4.00;3.47;;;0.80;89.30;;;;;;6177648;28;20656;-75
2021/01/15 02:49:15;;;;;;;5.93;3.70;;;0.80;89.30;;;;;;6178156;28;20050;-75
2021/01/15 02:52:18;;;;;;;5.27;3.87;;;0.80;89.30;;;;;;6178248;28;20043;-75
2021/01/15 02:55:19;;;;;;;4.33;3.23;;;0.80;89.10;;;;;;6177511;28;20050;-75
2021/01/15 02:58:20;;;;;;;5.40;3.73;;;0.80;88.90;;;;;;6177218;28;20054;-75
2021/01/15 03:01:22;;;;;;;6.50;3.63;;;0.80;88.80;;;;;;6178135;28;20085;-75
2021/01/15 03:04:31;;;;;;;4.60;2.83;;;0.70;88.70;;;;;;6177080;28;20724;-75
2021/01/15 03:07:33;;;;;;;6.47;4.77;;;0.70;89.10;;;;;;6177358;28;20058;-75
2021/01/15 03:10:35;;;;;;;5.43;4.20;;;0.80;88.90;;;;;;6177764;28;20129;-75
2021/01/15 03:13:37;;;;;;;4.30;3.90;;;0.70;89.00;;;;;;6176714;28;20501;-75
2021/01/15 03:16:41;;;;;;;5.43;3.67;;;0.70;89.00;;;;;;6177552;28;20057;-75
2021/01/15 03:19:44;;;;;;;5.47;3.93;;;0.70;88.60;;;;;;6177323;28;20047;-75
2021/01/15 03:22:45;;;;;;;5.60;3.53;;;0.80;88.30;;;;;;6176925;28;20058;-75
2021/01/15 03:25:47;;;;;;;4.97;3.63;;;0.70;89.10;;;;;;6177015;28;20085;-75
2021/01/15 03:28:49;;;;;;;5.03;4.17;;;0.70;88.80;;;;;;6177162;28;20114;-75
2021/01/15 03:31:50;;;;;;;3.90;3.00;;;0.70;88.60;;;;;;6176786;28;20070;-75
2021/01/15 03:34:52;;;;;;;7.93;4.17;;;0.70;88.50;;;;;;6176678;28;20125;-75
2021/01/15 03:37:58;;;;;;;4.97;4.17;;;0.70;88.20;;;;;;6176484;28;20479;-75
2021/01/15 03:41:00;;;;;;;4.97;3.77;;;0.70;88.80;;;;;;6176596;28;20493;-75
2021/01/15 03:44:01;;;;;;;5.53;2.60;;;0.60;89.00;;;;;;6176405;28;20629;-74
2021/01/15 03:47:03;;;;;;;5.20;3.57;;;0.60;88.80;;;;;;6177102;28;20125;-75
2021/01/15 03:50:06;;;;;;;3.87;3.33;;;0.60;88.70;;;;;;6176447;28;20047;-75
2021/01/15 03:53:08;;;;;;;7.93;4.97;;;0.60;89.30;;;;;;6176629;28;20523;-75
2021/01/15 03:56:09;;;;;;;6.53;4.97;;;0.60;88.60;;;;;;6175930;28;20043;-75
2021/01/15 03:59:10;;;;;;;5.90;3.87;;;0.60;88.50;;;;;;6176084;28;20054;-75
2021/01/15 04:02:12;;;;;;;5.27;4.50;;;0.60;88.30;;;;;;6176329;28;20054;-75
2021/01/15 04:05:14;;;;;;;4.70;3.87;;;0.60;89.60;;;;;;6176740;28;20136;-75
2021/01/15 04:08:15;;;;;;;5.03;4.10;;;0.50;89.60;;;;;;6176192;28;20416;-74
2021/01/15 04:11:17;;;;;;;6.60;3.67;;;0.50;90.10;;;;;;6177787;28;20082;-74
2021/01/15 04:14:18;;;;;;;5.53;3.43;;;0.50;90.30;;;;;;6175857;28;20483;-74
2021/01/15 04:17:22;;;;;;;4.60;4.20;;;0.50;89.90;;;;;;6176749;28;20523;-75
2021/01/15 04:20:24;;;;;;;5.43;3.90;;;0.50;89.40;;;;;;6175841;28;20479;-75
2021/01/15 04:23:25;;;;;;;4.07;3.67;;;0.40;89.10;;;;;;6176274;28;20115;-75
2021/01/15 04:26:26;;;;;;;3.90;3.47;;;0.40;89.10;;;;;;6175967;28;20050;-75
2021/01/15 04:29:28;;;;;;;6.20;4.17;;;0.40;88.70;;;;;;6175676;28;20057;-75
2021/01/15 04:32:29;;;;;;;5.37;4.30;;;0.40;88.20;;;;;;6175837;28;20127;-75
2021/01/15 04:35:31;;;;;;;6.13;3.20;;;0.30;88.00;;;;;;6175663;28;20054;-75
2021/01/15 04:38:32;;;;;;;4.70;4.23;;;0.30;88.10;;;;;;6174046;28;20038;-75
2021/01/15 04:41:34;;;;;;;4.87;4.43;;;0.30;87.80;;;;;;6175880;28;20054;-75
2021/01/15 04:44:36;;;;;;;8.27;4.00;;;0.30;88.10;;;;;;6175413;28;20054;-75
2021/01/15 04:47:42;;;;;;;4.03;3.50;;;0.30;88.10;;;;;;6175169;28;20058;-75
2021/01/15 04:50:44;;;;;;;4.63;4.07;;;0.20;88.20;;;;;;6175088;28;20042;-75
2021/01/15 04:53:54;;;;;;;6.63;3.83;;;0.20;87.20;;;;;;6174790;28;20576;-75
2021/01/15 04:56:58;;;;;;;5.37;4.80;;;0.20;87.40;;;;;;6175338;28;20050;-75
2021/01/15 05:00:04;;;;;;;11.53;4.20;;;0.10;87.70;;;;;;6174759;28;20506;-74
2021/01/15 05:03:06;;;;;;;5.10;3.70;;;0.10;87.30;;;;;;6174821;28;20125;-74
2021/01/15 05:06:09;;;;;;;4.03;3.60;;;0.10;87.90;;;;;;6174620;28;20039;-74
2021/01/15 05:09:12;;;;;;;4.93;4.00;;;0.10;87.70;;;;;;6174927;28;20078;-74
2021/01/15 05:12:15;;;;;;;6.33;5.40;;;0.00;87.60;;;;;;6174690;28;20058;-75
2021/01/15 05:15:18;;;;;;;5.87;4.50;;;0.00;88.00;;;;;;6174743;28;20098;-75
2021/01/15 05:18:20;;;;;;;7.30;5.20;;;0.00;87.60;;;;;;6175015;28;20066;-75
2021/01/15 05:21:22;;;;;;;6.13;4.03;;;0.00;87.60;;;;;;6174898;28;20051;-75
2021/01/15 05:24:24;;;;;;;8.53;5.27;;;-0.10;88.10;;;;;;6174060;28;20516;-75
2021/01/15 05:27:41;;;;;;;8.17;4.67;;;-0.10;88.30;;;;;;6174194;28;20050;-75
2021/01/15 05:30:43;;;;;;;6.63;4.53;;;-0.10;88.30;;;;;;6174046;28;20046;-75
2021/01/15 05:34:03;;;;;;;6.27;4.73;;;-0.20;88.20;;;;;;6174368;28;20046;-75
2021/01/15 05:37:09;;;;;;;5.20;4.23;;;;;;;;;;6174202;28;20133;-75
2021/01/15 05:40:11;;;;;;;4.83;4.07;;;-0.20;87.50;;;;;;6173523;28;20051;-75
2021/01/15 05:43:21;;;;;;;9.77;4.80;;;-0.20;88.20;;;;;;6173781;28;20093;-75
2021/01/15 05:46:22;;;;;;;8.17;5.17;;;-0.20;88.30;;;;;;6174503;28;20043;-75
2021/01/15 05:49:23;;;;;;;8.00;4.30;;;-0.20;87.70;;;;;;6174512;28;20410;-75
2021/01/15 05:52:26;;;;;;;9.70;4.70;;;-0.30;87.40;;;;;;6174157;28;20043;-75
2021/01/15 05:55:27;;;;;;;7.50;5.33;;;-0.30;87.60;;;;;;6172930;28;20046;-75
2021/01/15 05:58:28;;;;;;;5.30;4.20;;;-0.30;87.50;;;;;;6174120;28;20046;-75
2021/01/15 06:01:44;;;;;;;7.23;4.63;;;-0.30;87.50;;;;;;6174140;28;20057;-75
2021/01/15 06:04:46;;;;;;;7.00;5.53;;;-0.30;87.60;;;;;;6174786;28;20046;-75
2021/01/15 06:07:54;;;;;;;8.77;6.30;;;-0.30;87.80;;;;;;6173708;28;20125;-75
2021/01/15 06:10:55;;;;;;;;;;;-0.40;87.70;;;;;;6174129;28;20051;-75
2021/01/15 06:13:56;;;;;;;6.80;5.73;;;-0.40;88.60;;;;;;6173415;28;19926;-75
2021/01/15 06:17:02;;;;;;;6.00;4.20;;;-0.40;87.70;;;;;;6174169;28;20051;-75
2021/01/15 06:20:05;;;;;;;7.30;5.87;;;-0.40;87.60;;;;;;6173309;28;20532;-75
2021/01/15 06:23:13;;;;;;;6.90;5.30;;;-0.40;87.50;;;;;;6173587;28;20504;-75
2021/01/15 06:26:19;;;;;;;7.88;5.50;;;-0.40;88.10;;;;;;6173777;28;20050;-75
2021/01/15 06:29:27;;;;;;;6.83;5.27;;;-0.40;87.60;;;;;;6174267;28;20050;-75
2021/01/15 06:32:28;;;;;;;;;;;-0.40;87.80;;;;;;6174074;28;20054;-75
2021/01/15 06:35:30;;;;;;;7.70;5.67;;;-0.40;87.80;;;;;;6189860;28;19928;-75
2021/01/15 06:38:36;;;;;;;10.90;6.07;;;-0.50;87.40;;;;;;6198331;28;20094;-75
2021/01/15 06:41:41;;;;;;;9.77;6.00;;;-0.50;86.80;;;;;;6197887;28;20420;-75
2021/01/15 06:44:53;;;;;;;9.67;5.83;;;-0.40;87.30;;;;;;6199343;28;20134;-75
2021/01/15 06:47:56;;;;;;;11.37;6.60;;;-0.40;87.20;;;;;;6198423;28;20062;-75
2021/01/15 06:50:57;;;;;;;16.90;6.70;;;-0.50;87.50;;;;;;6199071;28;20050;-75
2021/01/15 06:54:06;;;;;;;14.17;8.17;;;-0.50;87.20;;;;;;6197123;28;20053;-75
2021/01/15 06:57:15;;;;;;;9.83;7.20;;;-0.50;88.10;;;;;;6198466;28;20062;-74
2021/01/15 07:00:22;;;;;;;8.77;6.83;;;-0.50;87.80;;;;;;6200003;28;20070;-74
2021/01/15 07:04:02;;;;;;;12.27;7.47;;;-0.50;87.60;;;;;;6195311;28;20059;-74
2021/01/15 07:07:11;;;;;;;19.52;10.65;;;-0.50;87.90;;;;;;6180251;28;20082;-75
2021/01/15 07:10:14;;;;;;;10.30;7.70;;;-0.50;88.30;;;;;;6195249;28;20125;-75
2021/01/15 07:13:28;;;;;;;15.77;9.27;;;-0.60;88.80;;;;;;6203253;28;20580;-75
2021/01/15 07:16:31;;;;;;;8.93;7.53;;;-0.60;89.00;;;;;;6203490;28;20046;-75
2021/01/15 07:19:35;;;;;;;11.13;7.90;;;-0.60;89.00;;;;;;6201561;28;20112;-74
2021/01/15 07:22:44;;;;;;;12.33;8.47;;;-0.60;90.00;;;;;;6200841;28;20043;-74
2021/01/15 07:25:49;;;;;;;12.60;9.50;;;-0.70;90.00;;;;;;6200761;28;20519;-74
2021/01/15 07:28:58;;;;;;;16.97;9.13;;;-0.70;89.90;;;;;;6201498;28;20050;-74
2021/01/15 07:32:05;;;;;;;16.33;9.90;;;-0.70;90.10;;;;;;6200949;28;20130;-74
2021/01/15 07:35:13;;;;;;;12.88;8.68;;;-0.70;90.30;;;;;;6200644;28;20045;-75
2021/01/15 07:38:16;;;;;;;15.60;12.05;;;-0.70;90.30;;;;;;6200954;28;20087;-74
2021/01/15 07:41:43;;;;;;;15.97;10.00;;;-0.60;90.60;;;;;;6201303;28;20060;-74
2021/01/15 07:44:44;;;;;;;16.60;11.27;;;-0.60;90.70;;;;;;6200670;28;20081;-75
2021/01/15 07:47:46;;;;;;;12.40;9.10;;;-0.60;90.80;;;;;;6200423;28;20128;-74
2021/01/15 07:50:49;;;;;;;15.97;9.43;;;-0.60;90.90;;;;;;6200699;28;20104;-74
2021/01/15 07:53:50;;;;;;;12.93;9.83;;;-0.50;91.00;;;;;;6199998;28;20530;-75
2021/01/15 07:56:53;;;;;;;16.07;10.77;;;-0.50;91.10;;;;;;6201462;28;20480;-75
2021/01/15 07:59:54;;;;;;;16.83;10.10;;;-0.50;91.10;;;;;;6200324;28;20578;-74
2021/01/15 08:03:00;;;;;;;18.70;11.83;;;-0.50;90.80;;;;;;6200110;28;20092;-74
2021/01/15 08:06:02;;;;;;;13.90;9.80;;;-0.40;90.70;;;;;;6199733;28;20045;-74
2021/01/15 08:09:05;;;;;;;18.27;13.07;;;-0.40;90.80;;;;;;6200265;28;20578;-75
2021/01/15 08:12:07;;;;;;;18.47;11.67;;;-0.30;91.10;;;;;;6200164;28;20042;-74
2021/01/15 08:15:27;;;;;;;17.97;10.43;;;-0.30;91.20;;;;;;6199290;28;20574;-74
2021/01/15 08:18:31;;;;;;;21.37;11.57;;;-0.20;91.00;;;;;;6197312;28;20129;-75
2021/01/15 08:21:33;;;;;;;16.57;12.10;;;-0.20;91.00;;;;;;6199829;28;20087;-75
2021/01/15 08:24:44;;;;;;;15.33;11.37;;;-0.10;90.80;;;;;;6199960;28;20061;-75
2021/01/15 08:27:47;;;;;;;17.27;11.37;;;-0.10;90.70;;;;;;6200191;28;20042;-75
2021/01/15 08:30:59;;;;;;;20.20;12.20;;;0.00;90.80;;;;;;6199962;28;20049;-75
2021/01/15 08:34:08;;;;;;;18.50;11.23;;;0.00;90.80;;;;;;6198954;28;20508;-74
2021/01/15 08:37:10;;;;;;;16.23;12.03;;;0.20;90.80;;;;;;6199638;28;20046;-75
2021/01/15 08:40:12;;;;;;;13.03;11.40;;;0.20;90.30;;;;;;6199337;28;20085;-74
2021/01/15 08:43:14;;;;;;;17.40;11.10;;;0.30;90.10;;;;;;6194014;28;20046;-76
2021/01/15 08:46:17;;;;;;;13.93;12.00;;;0.40;90.10;;;;;;6198042;28;20044;-74
2021/01/15 08:49:18;;;;;;;15.47;11.33;;;0.50;89.90;;;;;;6185871;28;20043;-74
2021/01/15 08:52:23;;;;;;;16.73;12.00;;;0.60;89.90;;;;;;6190119;28;20128;-74
2021/01/15 08:55:26;;;;;;;14.00;11.77;;;0.60;89.50;;;;;;6192137;28;20048;-74
2021/01/15 08:58:28;;;;;;;17.43;10.83;;;0.60;88.50;;;;;;6188404;28;20054;-74
2021/01/15 09:01:32;;;;;;;13.93;9.83;;;0.60;88.30;;;;;;6186987;28;20053;-76
2021/01/15 09:04:34;;;;;;;18.87;12.37;;;0.60;88.40;;;;;;6184835;28;20043;-75
2021/01/15 09:07:44;;;;;;;26.73;16.93;;;0.70;88.80;;;;;;6189032;28;20517;-75
2021/01/15 09:10:48;;;;;;;24.43;14.97;;;0.70;88.20;;;;;;6187795;28;20050;-74
2021/01/15 09:13:53;;;;;;;21.50;13.20;;;0.80;88.10;;;;;;6191525;28;20411;-74
2021/01/15 09:16:55;;;;;;;18.00;10.83;;;0.80;88.10;;;;;;6194942;28;20068;-75
2021/01/15 09:19:56;;;;;;;16.00;11.60;;;0.80;87.70;;;;;;6184957;28;20493;-74
2021/01/15 09:22:57;;;;;;;15.27;11.27;;;0.90;87.90;;;;;;6190772;28;20095;-75
2021/01/15 09:25:59;;;;;;;20.37;12.43;;;1.10;87.60;;;;;;6188941;28;20073;-75
2021/01/15 09:29:01;;;;;;;14.13;9.30;;;1.20;86.10;;;;;;6191774;28;20139;-74
2021/01/15 09:32:03;;;;;;;15.53;10.00;;;1.40;86.40;;;;;;6191764;28;20060;-74
2021/01/15 09:35:05;;;;;;;13.60;9.60;;;1.50;85.00;;;;;;6188669;28;20043;-75
2021/01/15 09:38:06;;;;;;;21.63;9.83;;;1.60;84.40;;;;;;6191817;28;20050;-75
2021/01/15 09:41:08;;;;;;;16.13;10.53;;;1.70;84.60;;;;;;6187314;28;20046;-75
2021/01/15 09:44:10;;;;;;;15.43;8.97;;;1.90;84.00;;;;;;6188230;28;20101;-74
2021/01/15 09:47:11;;;;;;;19.47;9.27;;;2.00;82.90;;;;;;6183069;28;20096;-75
2021/01/15 09:50:14;;;;;;;12.33;8.47;;;2.20;82.80;;;;;;6188471;28;20094;-76
2021/01/15 09:53:15;;;;;;;15.50;11.57;;;2.30;82.00;;;;;;6193534;28;20054;-75
2021/01/15 09:56:28;;;;;;;11.87;8.93;;;2.50;81.40;;;;;;6183562;28;20041;-76
2021/01/15 09:59:30;;;;;;;15.13;8.80;;;2.70;81.20;;;;;;6172875;28;20126;-75
2021/01/15 10:02:31;;;;;;;11.27;9.63;;;3.00;79.80;;;;;;6173665;28;20069;-75
2021/01/15 10:05:32;;;;;;;14.15;10.15;;;3.10;78.60;;;;;;6172573;28;20093;-74
2021/01/15 10:08:34;;;;;;;14.93;10.13;;;3.10;78.50;;;;;;6173331;28;20512;-75
2021/01/15 10:11:36;;;;;;;13.00;9.68;;;3.00;78.20;;;;;;6172478;28;20109;-75
2021/01/15 10:14:39;;;;;;;12.38;8.48;;;3.10;77.10;;;;;;6192910;28;20042;-75
2021/01/15 10:17:44;;;;;;;8.90;7.78;;;3.10;77.20;;;;;;6197376;28;20627;-74
2021/01/15 10:20:46;;;;;;;11.00;8.82;;;3.10;76.70;;;;;;6198094;28;20050;-75
2021/01/15 10:23:48;;;;;;;11.13;8.27;;;3.10;77.20;;;;;;6197537;28;20054;-75
2021/01/15 10:26:49;;;;;;;14.45;9.05;;;3.40;76.90;;;;;;6197534;28;20043;-75
2021/01/15 10:29:52;;;;;;;15.57;10.13;;;3.60;76.10;;;;;;6197547;28;20053;-74
2021/01/15 10:32:53;;;;;;;11.88;9.73;;;3.60;75.20;;;;;;6198050;28;20109;-75
2021/01/15 10:35:54;;;;;;;11.65;7.90;;;3.80;75.70;;;;;;6197705;28;20567;-75
2021/01/15 10:38:56;;;;;;;10.27;8.10;;;4.00;75.40;;;;;;6201795;28;20134;-75
2021/01/15 10:41:57;;;;;;;12.32;9.40;;;4.10;74.60;;;;;;6202026;28;20050;-75
2021/01/15 10:44:59;;;;;;;10.43;8.23;;;4.30;72.60;;;;;;6201768;28;20101;-75
2021/01/15 10:48:02;;;;;;;15.05;10.05;;;4.20;72.40;;;;;;6201615;28;20440;-75
2021/01/15 10:51:06;;;;;;;13.45;10.07;;;4.20;74.00;;;;;;6202338;28;20062;-75
2021/01/15 10:54:08;;;;;;;12.07;10.52;;;4.20;72.30;;;;;;6201537;28;20082;-75
2021/01/15 10:57:09;;;;;;;13.25;9.30;;;4.10;71.70;;;;;;6201681;28;20050;-74
2021/01/15 11:00:14;;;;;;;12.18;8.90;;;4.40;72.50;;;;;;6201608;28;20487;-75
2021/01/15 11:03:15;;;;;;;10.43;8.40;;;4.50;72.30;;;;;;6201319;28;20054;-75
2021/01/15 11:06:20;;;;;;;15.68;9.57;;;4.60;71.30;;;;;;6201278;28;20130;-74
2021/01/15 11:09:24;;;;;;;14.30;9.63;;;4.70;70.90;;;;;;6201301;28;20500;-75
2021/01/15 11:12:25;;;;;;;12.13;7.65;;;4.80;70.60;;;;;;6200700;28;20132;-75
2021/01/15 11:15:27;;;;;;;10.82;8.73;;;5.30;75.60;;;;;;6201150;28;20042;-75
2021/01/15 11:18:29;;;;;;;12.45;9.93;;;5.10;68.60;;;;;;6197978;28;20133;-75
2021/01/15 11:21:30;;;;;;;13.75;8.27;;;4.90;69.00;;;;;;6200473;28;20058;-75
2021/01/15 11:24:32;;;;;;;14.93;9.20;;;4.70;69.10;;;;;;6198683;28;20061;-75
2021/01/15 11:27:33;;;;;;;13.98;9.35;;;4.70;69.70;;;;;;6200250;28;20073;-76
2021/01/15 11:30:35;;;;;;;10.70;8.02;;;4.80;69.90;;;;;;6200760;28;20063;-75
2021/01/15 11:33:37;;;;;;;11.18;8.15;;;5.20;68.70;;;;;;6200645;28;20065;-76
2021/01/15 11:36:39;;;;;;;12.75;7.82;;;5.60;68.00;;;;;;6200745;28;20579;-76
2021/01/15 11:39:40;;;;;;;14.90;9.82;;;6.20;67.10;;;;;;6200615;28;20050;-75
2021/01/15 11:42:41;;;;;;;10.70;9.32;;;6.10;65.40;;;;;;6200530;28;20050;-75
2021/01/15 11:45:43;;;;;;;10.35;8.30;;;5.80;65.50;;;;;;6199888;28;20057;-76
2021/01/15 11:48:45;;;;;;;11.32;7.97;;;5.80;66.00;;;;;;6200305;28;20480;-75
2021/01/15 11:51:46;;;;;;;13.18;9.18;;;5.90;66.50;;;;;;6200064;28;20145;-76
2021/01/15 11:54:48;;;;;;;12.65;9.15;;;6.10;65.80;;;;;;6199652;28;20527;-75
2021/01/15 11:57:52;;;;;;;10.80;8.02;;;6.30;65.80;;;;;;6199763;28;20066;-76
2021/01/15 12:00:55;;;;;;;8.52;6.93;;;6.30;64.10;;;;;;6200634;28;20054;-76
2021/01/15 12:03:56;;;;;;;9.27;6.60;;;6.20;63.90;;;;;;6200098;28;20496;-75
2021/01/15 12:06:57;;;;;;;10.65;9.25;;;6.20;63.70;;;;;;6193754;28;20468;-75
2021/01/15 12:09:59;;;;;;;8.88;7.30;;;6.20;62.60;;;;;;6191602;28;20085;-75
2021/01/15 12:13:00;;;;;;;9.05;6.70;;;6.10;62.90;;;;;;6198692;28;20129;-76
2021/01/15 12:16:03;;;;;;;11.65;7.47;;;5.90;63.30;;;;;;6184766;28;20166;-76
2021/01/15 12:19:04;;;;;;;12.27;7.03;;;5.60;63.80;;;;;;6187190;28;20382;-77
2021/01/15 12:22:06;;;;;;;12.57;8.77;;;5.60;64.50;;;;;;6187597;28;20081;-77
2021/01/15 12:25:08;;;;;;;12.02;8.65;;;5.50;64.80;;;;;;6193016;28;20555;-76
2021/01/15 12:28:11;;;;;;;13.38;8.25;;;5.50;64.90;;;;;;6198242;28;20039;-76
2021/01/15 12:31:15;;;;;;;10.38;7.88;;;5.50;65.10;;;;;;6186680;28;20090;-74
2021/01/15 12:34:16;;;;;;;13.82;8.25;;;5.50;64.20;;;;;;6187665;28;20072;-76
2021/01/15 12:37:23;;;;;;;11.30;7.97;;;5.50;64.40;;;;;;6185642;28;20050;-75
2021/01/15 12:40:24;;;;;;;9.00;6.97;;;5.40;64.30;;;;;;6192500;28;20047;-76
2021/01/15 12:43:26;;;;;;;12.02;8.32;;;5.60;65.20;;;;;;6192564;28;20045;-75
2021/01/15 12:46:29;;;;;;;8.30;6.60;;;5.80;63.70;;;;;;6189923;28;20042;-76
2021/01/15 12:49:30;;;;;;;10.60;6.45;;;5.90;62.30;;;;;;6187330;28;20132;-75
2021/01/15 12:52:31;;;;;;;9.43;6.70;;;5.80;62.40;;;;;;6187221;28;20141;-76
2021/01/15 12:55:33;;;;;;;7.18;5.78;;;5.80;63.90;;;;;;6196947;28;20125;-75
2021/01/15 12:58:34;;;;;;;14.32;9.50;;;5.80;62.50;;;;;;6189775;28;20042;-75
2021/01/15 13:01:37;;;;;;;7.63;6.70;;;5.90;63.20;;;;;;6191362;28;20054;-77
2021/01/15 13:04:39;;;;;;;8.10;5.95;;;6.10;62.30;;;;;;6186576;28;20058;-75
2021/01/15 13:07:40;;;;;;;8.73;6.10;;;5.80;62.20;;;;;;6190410;28;20046;-75
2021/01/15 13:10:45;;;;;;;9.63;6.82;;;5.70;62.50;;;;;;6186448;28;20103;-76
2021/01/15 13:13:46;;;;;;;12.57;7.45;;;5.80;63.30;;;;;;6190843;28;20101;-76
2021/01/15 13:16:49;;;;;;;14.57;8.30;;;5.80;61.80;;;;;;6197406;28;20101;-76
2021/01/15 13:19:50;;;;;;;15.40;9.20;;;6.10;62.90;;;;;;6189161;28;20050;-77
2021/01/15 13:22:58;;;;;;;20.67;11.18;;;6.30;63.20;;;;;;6188695;28;20050;-76
2021/01/15 13:25:59;;;;;;;12.35;7.90;;;6.40;60.40;;;;;;6184420;28;20504;-77
2021/01/15 13:29:00;;;;;;;5.95;4.85;;;6.50;60.20;;;;;;6195866;28;20077;-75
2021/01/15 13:32:03;;;;;;;8.05;6.03;;;6.80;60.20;;;;;;6191297;28;20121;-76
2021/01/15 13:35:05;;;;;;;6.65;4.88;;;6.80;59.90;;;;;;6187441;28;20046;-76
2021/01/15 13:38:08;;;;;;;7.18;5.35;;;6.80;59.90;;;;;;6191532;28;20125;-76
2021/01/15 13:41:10;;;;;;;7.47;5.63;;;6.80;59.40;;;;;;6188351;28;20080;-75
2021/01/15 13:44:11;;;;;;;9.00;6.13;;;6.80;58.80;;;;;;6190917;28;20057;-75
2021/01/15 13:47:13;;;;;;;7.53;5.10;;;6.50;58.60;;;;;;6193539;28;20038;-76
2021/01/15 13:50:16;;;;;;;7.32;5.50;;;6.00;59.10;;;;;;6191085;28;20055;-76
2021/01/15 13:53:21;;;;;;;7.30;4.80;;;5.90;59.80;;;;;;6186428;28;20042;-76
2021/01/15 13:56:22;;;;;;;5.15;4.43;;;5.70;58.90;;;;;;6184698;28;20041;-76
2021/01/15 13:59:24;;;;;;;5.82;4.22;;;5.60;59.30;;;;;;6184097;28;20051;-75
2021/01/15 14:02:26;;;;;;;5.93;5.05;;;5.60;60.10;;;;;;6184865;28;20131;-75
2021/01/15 14:05:27;;;;;;;6.60;4.57;;;5.60;59.70;;;;;;6188880;28;20057;-75
2021/01/15 14:08:29;;;;;;;8.65;4.85;;;5.60;60.20;;;;;;6191140;28;20054;-75
2021/01/15 14:11:30;;;;;;;7.13;4.80;;;5.60;59.80;;;;;;6193085;28;20046;-75
2021/01/15 14:14:33;;;;;;;6.78;5.50;;;5.50;60.20;;;;;;6190411;28;20423;-76
2021/01/15 14:17:39;;;;;;;7.47;5.35;;;5.70;61.20;;;;;;6201020;28;20100;-75
2021/01/15 14:20:40;;;;;;;8.57;6.22;;;5.90;60.10;;;;;;6197769;28;20100;-76
2021/01/15 14:23:44;;;;;;;8.73;5.65;;;6.10;61.00;;;;;;6199166;28;20054;-75
2021/01/15 14:26:45;;;;;;;6.57;5.43;;;6.40;60.50;;;;;;6188247;28;20050;-75
2021/01/15 14:29:46;;;;;;;7.22;6.00;;;6.70;60.00;;;;;;6197270;28;20054;-75
2021/01/15 14:32:50;;;;;;;8.45;5.70;;;6.90;59.40;;;;;;6188898;28;20145;-75
2021/01/15 14:35:52;;;;;;;8.50;5.18;;;6.80;58.80;;;;;;6197412;28;20508;-75
2021/01/15 14:38:53;;;;;;;11.55;5.78;;;6.70;58.10;;;;;;6195475;28;20042;-75
2021/01/15 14:41:54;;;;;;;6.13;5.28;;;6.40;58.70;;;;;;6193113;28;20447;-75
2021/01/15 14:44:56;;;;;;;8.93;5.65;;;6.00;59.50;;;;;;6195835;28;20386;-75
2021/01/15 14:47:58;;;;;;;7.43;6.15;;;5.70;60.60;;;;;;6195271;28;20042;-75
2021/01/15 14:51:00;;;;;;;10.40;6.03;;;5.50;60.70;;;;;;6195755;28;20046;-75
2021/01/15 14:54:01;;;;;;;7.63;6.07;;;5.30;61.20;;;;;;6192246;28;20089;-75
2021/01/15 14:57:04;;;;;;;5.82;4.75;;;5.10;61.70;;;;;;6191235;28;20054;-75
2021/01/15 15:00:07;;;;;;;11.30;6.10;;;5.00;61.60;;;;;;6192393;28;20042;-75
2021/01/15 15:03:09;;;;;;;6.70;4.70;;;4.80;62.30;;;;;;6191792;28;20057;-75
2021/01/15 15:06:10;;;;;;;5.47;4.38;;;4.70;61.90;;;;;;6194805;28;20050;-75
2021/01/15 15:09:11;;;;;;;6.57;4.53;;;4.50;62.40;;;;;;6190615;28;20090;-75
2021/01/15 15:12:13;;;;;;;8.55;6.32;;;4.30;63.20;;;;;;6195281;28;20469;-75
2021/01/15 15:15:14;;;;;;;7.00;6.30;;;4.20;63.70;;;;;;6194958;28;20042;-75
2021/01/15 15:18:17;;;;;;;10.32;6.38;;;4.10;64.50;;;;;;6189866;28;20640;-74
2021/01/15 15:21:18;;;;;;;10.38;6.95;;;4.00;65.20;;;;;;6198078;28;20125;-77
2021/01/15 15:24:19;;;;;;;11.48;6.15;;;3.80;65.60;;;;;;6180282;28;20053;-76
2021/01/15 15:27:21;;;;;;;11.07;6.47;;;3.70;66.70;;;;;;6193468;28;20771;-76
2021/01/15 15:30:23;;;;;;;12.15;9.07;;;3.60;66.70;;;;;;6201402;28;20551;-76
2021/01/15 15:33:28;;;;;;;13.07;9.52;;;3.50;67.70;;;;;;6201674;28;20054;-77
2021/01/15 15:36:30;;;;;;;16.00;10.00;;;3.40;68.60;;;;;;6201527;28;20042;-77
2021/01/15 15:39:31;;;;;;;13.80;9.90;;;3.20;69.10;;;;;;6199330;28;20074;-77
2021/01/15 15:42:33;;;;;;;14.20;10.38;;;3.20;69.90;;;;;;6193180;28;20042;-77
2021/01/15 15:45:34;;;;;;;13.73;10.32;;;3.10;70.40;;;;;;6200929;28;20054;-77
2021/01/15 15:48:37;;;;;;;15.20;9.85;;;3.00;70.90;;;;;;6191421;28;20050;-78
2021/01/15 15:51:38;;;;;;;15.18;9.65;;;2.90;71.70;;;;;;6196988;28;20073;-77
2021/01/15 15:54:39;;;;;;;15.25;9.55;;;2.90;72.10;;;;;;6180028;28;20058;-77
2021/01/15 15:57:40;;;;;;;20.23;11.13;;;2.80;72.30;;;;;;6200075;28;20193;-77